Time;durP1;ratioP1;P1;durP2;ratioP2;P2;SDS_P1;SDS_P2;PMS_P1;PMS_P2;Temp;Humidity;BMP_temperature;BMP_pressure;BME280_temperature;BME280_humidity;BME280_pressure;Samples;Min_cycle;Max_cycle;Signal;HPM_P1;HPM_P2
2023/09/24 00:02:20;;;;;;;5.40;4.50;;;9.90;98.80;;;9.05;100.00;98628.22;5064959;28;20451;-79
2023/09/24 00:04:48;;;;;;;5.83;4.53;;;9.80;98.30;;;9.11;100.00;98642.81;5070252;28;20507;-78
2023/09/24 00:07:17;;;;;;;5.90;5.00;;;9.80;98.40;;;9.16;100.00;98636.81;5053061;28;20848;-78
2023/09/24 00:09:44;;;;;;;5.77;4.40;;;9.80;98.60;;;8.97;100.00;98614.84;5047926;28;20450;-77
2023/09/24 00:12:12;;;;;;;5.07;4.53;;;9.80;98.30;;;9.01;100.00;98626.09;5049631;28;20448;-76
2023/09/24 00:14:40;;;;;;;4.80;4.27;;;9.70;98.50;;;8.87;100.00;98633.19;5047742;28;20454;-77
2023/09/24 00:17:09;;;;;;;5.03;4.23;;;9.60;98.00;;;8.81;100.00;98636.63;5047407;28;20458;-80
2023/09/24 00:19:37;;;;;;;5.57;5.17;;;9.50;98.50;;;8.72;100.00;98638.59;5047026;28;20545;-80
2023/09/24 00:22:04;;;;;;;5.57;5.07;;;9.40;99.30;;;8.60;100.00;98638.25;5047382;28;20461;-77
2023/09/24 00:24:34;;;;;;;5.50;5.00;;;9.30;99.60;;;8.54;100.00;98647.91;5045055;28;20552;-77
2023/09/24 00:27:01;;;;;;;5.37;4.87;;;9.30;99.90;;;8.45;100.00;98647.16;5044386;28;20453;-76
2023/09/24 00:29:28;;;;;;;6.87;4.83;;;9.20;99.90;;;8.46;100.00;98646.13;5046590;28;20922;-81
2023/09/24 00:31:56;;;;;;;7.27;4.87;;;9.10;99.90;;;8.34;100.00;98640.38;5046654;28;20503;-76
2023/09/24 00:34:23;;;;;;;6.77;5.50;;;9.10;99.90;;;8.05;100.00;98568.53;5043260;28;20535;-77
2023/09/24 00:36:51;;;;;;;4.90;4.43;;;9.20;99.90;;;8.42;100.00;98650.22;5050360;28;20525;-77
2023/09/24 00:39:19;;;;;;;6.80;5.13;;;9.10;99.90;;;8.47;100.00;98646.94;5045190;28;20486;-76
2023/09/24 00:41:50;;;;;;;6.27;5.33;;;9.10;99.90;;;8.29;100.00;98639.25;5046837;28;20490;-79
2023/09/24 00:44:18;;;;;;;8.03;6.00;;;9.00;99.90;;;8.21;100.00;98632.94;5047856;28;22215;-77
2023/09/24 00:46:46;;;;;;;5.90;4.97;;;9.00;99.90;;;8.37;100.00;98647.22;5048375;28;20518;-76
2023/09/24 00:49:15;;;;;;;5.20;4.70;;;9.00;99.90;;;8.33;100.00;98643.25;5057793;28;20536;-78
2023/09/24 00:51:43;;;;;;;5.27;4.70;;;9.00;99.90;;;8.26;100.00;98650.38;5046706;28;20473;-75
2023/09/24 00:54:11;;;;;;;5.83;5.23;;;8.90;99.90;;;7.79;100.00;98576.03;5047701;28;20537;-75
2023/09/24 00:56:40;;;;;;;7.87;6.20;;;8.90;99.90;;;7.76;100.00;98573.72;5048481;28;20458;-76
2023/09/24 00:59:08;;;;;;;6.13;5.40;;;8.90;99.90;;;8.27;100.00;98654.78;5061500;28;20602;-75
2023/09/24 01:01:36;;;;;;;5.70;5.10;;;8.90;99.90;;;8.26;100.00;98648.53;5048110;28;20470;-79
2023/09/24 01:04:05;;;;;;;8.30;5.67;;;8.90;99.90;;;8.21;100.00;98659.84;5045455;28;20453;-77
2023/09/24 01:06:34;;;;;;;6.77;5.70;;;8.90;99.90;;;8.17;100.00;98665.78;5045165;28;20456;-76
2023/09/24 01:09:05;;;;;;;6.83;5.63;;;8.90;99.90;;;8.30;100.00;98665.16;5043631;28;20502;-77
2023/09/24 01:11:33;;;;;;;5.60;5.10;;;9.00;99.90;;;7.85;100.00;98585.22;5045676;28;20448;-75
2023/09/24 01:14:02;;;;;;;6.70;4.80;;;9.00;99.90;;;8.26;100.00;98663.84;5045698;28;20461;-75
2023/09/24 01:16:32;;;;;;;7.37;5.23;;;9.00;99.90;;;8.18;100.00;98664.75;5045478;28;20462;-78
2023/09/24 01:18:59;;;;;;;6.13;4.77;;;8.90;99.90;;;8.21;100.00;98654.47;5060131;28;20489;-82
2023/09/24 01:21:28;;;;;;;4.67;4.27;;;8.90;99.90;;;8.21;100.00;98659.84;5044337;28;20476;-76
2023/09/24 01:24:00;;;;;;;5.77;4.63;;;8.90;99.90;;;8.16;100.00;98666.81;5044281;28;20460;-76
2023/09/24 01:26:27;;;;;;;4.90;4.50;;;8.90;99.90;;;8.07;100.00;98669.59;5061782;28;20535;-76
2023/09/24 01:28:56;;;;;;;5.67;4.80;;;8.90;99.90;;;8.09;100.00;98672.09;5046269;28;20461;-77
2023/09/24 01:31:26;;;;;;;4.33;3.93;;;8.80;99.90;;;8.13;100.00;98662.66;5051838;28;20556;-77
2023/09/24 01:33:53;;;;;;;5.87;5.27;;;8.90;99.90;;;8.08;100.00;98667.72;5041661;28;20466;-76
2023/09/24 01:36:21;;;;;;;4.43;4.03;;;8.90;99.90;;;8.08;100.00;98675.78;5046967;28;20482;-78
2023/09/24 01:38:49;;;;;;;5.13;4.63;;;8.90;99.90;;;7.98;100.00;98664.47;5043989;28;20476;-76
2023/09/24 01:41:19;;;;;;;5.83;4.33;;;8.90;99.90;;;8.07;100.00;98676.81;5045864;28;20453;-78
2023/09/24 01:43:47;;;;;;;5.70;4.10;;;8.90;99.90;;;8.03;100.00;98679.03;5047473;28;20454;-74
2023/09/24 01:46:14;;;;;;;4.50;4.10;;;8.90;99.90;;;7.99;100.00;98671.53;5050227;28;20450;-76
2023/09/24 01:48:43;;;;;;;6.03;4.00;;;8.90;99.90;;;7.97;100.00;98674.41;5044621;28;20806;-75
2023/09/24 01:51:11;;;;;;;5.10;4.60;;;8.90;99.90;;;8.06;100.00;98686.75;5044511;28;20481;-76
2023/09/24 01:53:39;;;;;;;4.73;4.33;;;8.90;99.90;;;8.16;100.00;98681.13;5045145;28;21173;-77
2023/09/24 01:56:07;;;;;;;4.60;4.20;;;9.00;99.90;;;8.07;100.00;98687.59;5045610;28;20451;-77
2023/09/24 01:58:37;;;;;;;5.40;4.30;;;9.00;99.90;;;7.99;100.00;98693.06;5043810;28;20558;-76
2023/09/24 02:01:05;;;;;;;4.73;4.23;;;8.90;99.90;;;7.93;100.00;98703.50;5045842;28;20525;-77
2023/09/24 02:03:32;;;;;;;5.00;3.90;;;8.90;99.90;;;7.89;100.00;98688.75;5046382;28;20543;-77
2023/09/24 02:06:00;;;;;;;4.97;4.47;;;8.80;99.90;;;7.82;100.00;98693.22;5044550;28;20858;-77
2023/09/24 02:08:30;;;;;;;6.10;4.07;;;8.70;99.90;;;7.86;100.00;98699.88;5047782;28;20746;-76
2023/09/24 02:10:59;;;;;;;7.47;3.63;;;8.70;99.90;;;7.77;100.00;98703.66;5041798;28;20438;-77
2023/09/24 02:13:27;;;;;;;5.37;4.07;;;8.70;99.90;;;7.82;100.00;98705.81;5059426;28;20515;-79
2023/09/24 02:15:56;;;;;;;5.23;4.00;;;8.70;99.90;;;7.77;100.00;98709.03;5058769;28;20458;-77
2023/09/24 02:18:25;;;;;;;4.70;4.30;;;8.70;99.90;;;7.62;100.00;98704.44;5057289;28;20538;-80
2023/09/24 02:20:54;;;;;;;4.60;3.60;;;8.60;99.90;;;7.57;100.00;98704.16;5053631;28;20509;-76
2023/09/24 02:23:23;;;;;;;4.80;4.00;;;8.60;99.90;;;7.55;100.00;98718.78;5047918;28;20440;-76
2023/09/24 02:25:50;;;;;;;6.10;4.30;;;8.50;99.90;;;7.60;100.00;98716.41;5048108;28;20623;-76
2023/09/24 02:28:19;;;;;;;4.23;3.93;;;8.50;99.90;;;7.51;100.00;98708.38;5045857;28;20897;-76
2023/09/24 02:30:47;;;;;;;4.23;3.80;;;8.50;99.90;;;7.54;100.00;98712.56;5045047;28;20458;-76
2023/09/24 02:33:16;;;;;;;4.80;4.30;;;8.50;99.90;;;7.50;100.00;98705.84;5042981;28;20454;-76
2023/09/24 02:35:44;;;;;;;5.73;4.30;;;8.50;99.90;;;7.59;100.00;98720.94;5046964;28;20527;-76
2023/09/24 02:38:14;;;;;;;5.80;4.27;;;8.50;99.90;;;7.67;100.00;98727.28;5046482;28;20470;-78
2023/09/24 02:40:41;;;;;;;5.13;4.40;;;8.60;99.90;;;7.40;100.00;98689.97;5043071;28;20441;-77
2023/09/24 02:43:09;;;;;;;7.47;4.97;;;8.60;99.90;;;7.58;100.00;98719.25;5047117;28;20944;-77
2023/09/24 02:45:36;;;;;;;4.70;4.20;;;8.60;99.90;;;7.53;100.00;98724.34;5046360;28;20523;-76
2023/09/24 02:48:06;;;;;;;5.03;4.20;;;8.50;99.90;;;7.59;100.00;98729.00;5043572;28;20442;-78
2023/09/24 02:50:35;;;;;;;5.30;4.23;;;8.50;99.90;;;7.68;100.00;98747.78;5042189;28;20558;-77
2023/09/24 02:53:04;;;;;;;4.70;4.27;;;8.60;99.90;;;7.34;100.00;98691.50;5045762;28;20458;-76
2023/09/24 02:55:32;;;;;;;5.00;4.17;;;8.60;99.90;;;7.62;100.00;98755.53;5045228;28;20509;-79
2023/09/24 02:58:00;;;;;;;4.90;3.83;;;8.60;99.90;;;7.60;100.00;98762.94;5045510;28;20817;-80
2023/09/24 03:00:36;;;;;;;6.60;4.50;;;8.50;99.90;;;7.55;100.00;98761.81;5039202;28;20503;-79
2023/09/24 03:03:05;;;;;;;4.90;4.10;;;8.50;99.90;;;7.41;100.00;98758.84;5044710;28;20533;-76
2023/09/24 03:05:35;;;;;;;4.80;4.40;;;8.40;99.90;;;7.32;100.00;98763.44;5044710;28;20461;-77
2023/09/24 03:08:03;;;;;;;4.47;4.07;;;8.30;99.90;;;7.33;100.00;98773.19;5045277;28;20442;-79
2023/09/24 03:10:32;;;;;;;5.20;4.70;;;8.30;99.90;;;7.36;100.00;98758.56;5053158;28;20843;-74
2023/09/24 03:13:00;;;;;;;4.23;3.80;;;8.30;99.90;;;7.37;100.00;98787.97;5040124;28;20489;-81
2023/09/24 03:15:28;;;;;;;4.37;3.97;;;8.30;99.90;;;7.30;100.00;98768.16;5058268;28;20449;-76
2023/09/24 03:17:58;;;;;;;10.13;4.90;;;8.30;99.90;;;7.40;100.00;98778.69;5041562;28;20459;-75
2023/09/24 03:20:27;;;;;;;5.10;4.60;;;8.30;99.90;;;7.32;100.00;98763.44;5042558;28;20591;-75
2023/09/24 03:23:01;;;;;;;5.80;4.30;;;8.40;99.90;;;7.39;100.00;98787.78;5047088;28;20544;-75
2023/09/24 03:25:29;;;;;;;8.53;4.53;;;8.40;99.90;;;7.36;100.00;98783.59;5040707;28;20463;-75
2023/09/24 03:28:00;;;;;;;4.63;4.20;;;8.30;99.90;;;7.37;100.00;98782.59;5044262;28;20944;-75
2023/09/24 03:30:28;;;;;;;4.37;3.97;;;8.30;99.90;;;7.36;100.00;98786.28;5045064;28;20491;-75
2023/09/24 03:32:57;;;;;;;5.63;4.90;;;8.30;99.90;;;7.32;100.00;98774.19;5046765;28;20440;-77
2023/09/24 03:35:26;;;;;;;5.53;4.93;;;8.30;99.90;;;7.41;100.00;98792.97;5064897;28;20814;-76
2023/09/24 03:37:56;;;;;;;7.20;4.37;;;8.30;99.90;;;7.40;100.00;98802.06;5048706;28;20459;-75
2023/09/24 03:40:25;;;;;;;5.90;3.93;;;8.30;99.90;;;7.36;100.00;98797.03;5048280;28;20968;-77
2023/09/24 03:42:52;;;;;;;6.20;4.70;;;8.20;99.40;;;7.40;100.00;98802.06;5048574;28;20548;-79
2023/09/24 03:45:23;;;;;;;4.43;4.03;;;8.20;99.90;;;7.27;100.00;98794.53;5064499;28;20454;-79
2023/09/24 03:47:51;;;;;;;7.30;4.37;;;8.10;99.40;;;7.16;100.00;98787.72;5047147;28;20489;-79
2023/09/24 03:50:19;;;;;;;5.87;4.43;;;8.10;99.90;;;7.28;100.00;98806.97;5045942;28;20563;-77
2023/09/24 03:52:49;;;;;;;5.33;4.07;;;8.20;99.90;;;7.31;100.00;98814.72;5048198;28;20456;-75
2023/09/24 03:55:19;;;;;;;4.83;4.33;;;8.20;99.90;;;7.19;100.00;98814.22;5046534;28;20453;-77
2023/09/24 03:57:47;;;;;;;7.40;4.70;;;8.10;99.20;;;7.20;100.00;98815.91;5046732;28;20449;-76
2023/09/24 04:00:18;;;;;;;4.63;3.80;;;8.10;99.60;;;7.22;100.00;98811.22;5042414;28;20501;-76
2023/09/24 04:02:47;;;;;;;4.90;4.40;;;8.20;99.70;;;6.79;100.00;98760.47;5044961;28;20453;-80
2023/09/24 04:05:17;;;;;;;4.47;3.77;;;8.20;99.20;;;7.27;100.00;98824.97;5039691;28;21035;-77
2023/09/24 04:07:46;;;;;;;8.90;4.47;;;8.20;99.70;;;7.18;100.00;98823.31;5041995;28;20486;-78
2023/09/24 04:10:14;;;;;;;5.10;4.60;;;8.10;99.20;;;7.20;100.00;98819.44;5048594;28;20438;-76
2023/09/24 04:12:46;;;;;;;4.10;3.70;;;8.10;99.20;;;7.13;100.00;98813.09;5047933;28;20453;-75
2023/09/24 04:15:18;;;;;;;6.73;4.20;;;8.10;98.50;;;7.11;100.00;98817.78;5055911;28;20470;-76
2023/09/24 04:17:46;;;;;;;5.10;4.47;;;8.10;98.40;;;7.17;100.00;98827.00;5047805;28;20792;-77
2023/09/24 04:20:19;;;;;;;3.93;3.53;;;8.10;98.60;;;6.91;100.00;98787.81;5043790;28;20478;-77
2023/09/24 04:22:47;;;;;;;4.90;4.23;;;8.10;98.70;;;7.06;100.00;98809.41;5046302;28;20504;-76
2023/09/24 04:25:15;;;;;;;4.37;3.97;;;8.00;98.40;;;7.06;100.00;98817.47;5047643;28;20674;-78
2023/09/24 04:27:45;;;;;;;5.40;4.20;;;8.00;98.10;;;7.03;100.00;98832.09;5047491;28;20963;-76
2023/09/24 04:30:15;;;;;;;5.93;4.50;;;7.90;97.80;;;7.04;100.00;98841.81;5055675;28;20466;-78
2023/09/24 04:32:44;;;;;;;4.47;4.17;;;7.80;98.00;;;6.90;100.00;98861.34;5061331;28;20475;-77
2023/09/24 04:35:11;;;;;;;4.13;3.70;;;7.80;98.10;;;6.71;100.00;98846.44;5064239;28;20457;-78
2023/09/24 04:37:39;;;;;;;5.37;4.30;;;7.70;98.10;;;6.70;100.00;98871.63;5056074;28;20794;-78
2023/09/24 04:40:09;;;;;;;7.17;3.67;;;7.60;98.10;;;6.57;100.00;98867.59;5047423;28;20530;-76
2023/09/24 04:42:36;;;;;;;5.77;4.30;;;7.50;97.90;;;6.62;100.00;98862.56;5048380;28;20570;-76
2023/09/24 04:45:07;;;;;;;4.53;4.13;;;7.50;99.10;;;6.55;100.00;98860.72;5048711;28;20462;-76
2023/09/24 04:47:34;;;;;;;4.43;3.87;;;7.60;99.90;;;6.70;100.00;98867.09;5046698;28;20459;-78
2023/09/24 04:50:03;;;;;;;4.50;3.77;;;7.70;99.90;;;6.85;100.00;98890.56;5046302;28;21083;-76
2023/09/24 04:52:30;;;;;;;4.73;4.33;;;7.70;99.90;;;6.76;100.00;98882.53;5046152;28;20532;-78
2023/09/24 04:54:58;;;;;;;3.83;3.53;;;7.70;99.80;;;6.72;100.00;98891.91;5047064;28;20453;-76
2023/09/24 04:57:25;;;;;;;4.07;3.73;;;7.70;99.40;;;6.23;100.00;98799.66;5047168;28;20616;-79
2023/09/24 04:59:53;;;;;;;6.67;3.50;;;7.70;99.50;;;6.73;100.00;98890.91;5045072;28;20479;-76
2023/09/24 05:02:23;;;;;;;4.50;4.10;;;7.70;98.90;;;6.62;100.00;98896.66;5047821;28;20461;-76
2023/09/24 05:04:51;;;;;;;5.70;4.33;;;7.60;98.00;;;6.22;100.00;98834.75;5057040;28;20576;-77
2023/09/24 05:07:19;;;;;;;4.40;4.03;;;7.50;98.60;;;6.26;100.00;98833.38;5046322;28;20446;-76
2023/09/24 05:09:46;;;;;;;5.30;3.90;;;7.50;98.70;;;6.59;100.00;98902.31;5045445;28;20534;-78
2023/09/24 05:12:13;;;;;;;5.93;4.27;;;7.50;98.40;;;6.42;100.00;98888.09;5044342;28;20463;-77
2023/09/24 05:14:41;;;;;;;6.60;4.50;;;7.40;97.80;;;6.32;100.00;98888.25;5043810;28;20552;-77
2023/09/24 05:17:09;;;;;;;5.73;4.20;;;7.30;98.40;;;6.31;100.00;98894.63;5047044;28;20524;-77
2023/09/24 05:19:37;;;;;;;4.73;4.17;;;7.20;99.10;;;6.09;100.00;98876.31;5044368;28;20474;-78
2023/09/24 05:22:06;;;;;;;4.50;4.10;;;7.20;99.90;;;6.49;100.00;98897.97;5045711;28;20547;-76
2023/09/24 05:24:34;;;;;;;5.07;4.47;;;7.30;99.90;;;6.48;100.00;98901.69;5046817;28;20447;-74
2023/09/24 05:27:02;;;;;;;5.77;4.63;;;7.30;99.90;;;6.49;100.00;98907.88;5044062;28;20445;-79
2023/09/24 05:29:30;;;;;;;4.90;4.20;;;7.40;99.90;;;6.44;100.00;98910.22;5046516;28;20544;-76
2023/09/24 05:31:57;;;;;;;6.00;4.70;;;7.40;99.90;;;6.35;100.00;98902.16;5043813;28;20446;-77
2023/09/24 05:34:25;;;;;;;6.00;4.30;;;7.40;99.80;;;6.50;100.00;98921.13;5057194;28;20497;-76
2023/09/24 05:36:53;;;;;;;4.50;4.07;;;7.40;99.90;;;6.52;100.00;98918.28;5047487;28;20461;-77
2023/09/24 05:39:21;;;;;;;4.27;3.87;;;7.50;99.80;;;6.55;100.00;98919.78;5044027;28;20473;-76
2023/09/24 05:41:49;;;;;;;4.80;4.30;;;7.50;99.50;;;6.38;100.00;98909.03;5045563;28;20453;-76
2023/09/24 05:44:17;;;;;;;5.27;4.77;;;7.50;98.60;;;6.42;100.00;98934.53;5042945;28;20501;-72
2023/09/24 05:46:45;;;;;;;4.63;4.03;;;7.50;98.20;;;6.29;100.00;98921.63;5060530;28;20454;-72
2023/09/24 05:49:12;;;;;;;4.30;3.90;;;7.40;97.40;;;6.49;100.00;98938.25;5042612;28;20452;-72
2023/09/24 05:51:39;;;;;;;4.63;4.23;;;7.40;97.60;;;6.58;100.00;98936.41;5045259;28;20574;-72
2023/09/24 05:54:10;;;;;;;4.43;4.07;;;7.50;97.50;;;6.42;100.00;98936.41;5044913;28;20453;-73
2023/09/24 05:56:37;;;;;;;5.37;4.20;;;7.50;96.00;;;6.49;100.00;98935.56;5045291;28;20461;-73
2023/09/24 05:59:04;;;;;;;4.20;3.80;;;7.50;96.30;;;6.43;100.00;98936.22;5042229;28;20518;-72
2023/09/24 06:01:32;;;;;;;5.87;4.33;;;7.50;96.60;;;6.49;100.00;98923.97;5044156;28;20947;-76
2023/09/24 06:03:59;;;;;;;5.80;4.00;;;7.50;96.60;;;6.66;100.00;98947.16;5058854;28;20537;-76
2023/09/24 06:06:27;;;;;;;10.20;4.63;;;7.60;96.40;;;6.58;100.00;98925.69;5046025;28;20548;-76
2023/09/24 06:08:54;;;;;;;5.30;4.33;;;7.60;96.00;;;6.73;100.00;98925.81;5042185;28;20528;-76
2023/09/24 06:11:23;;;;;;;4.40;3.77;;;7.70;96.10;;;6.79;100.00;98941.28;5044880;28;20955;-75
2023/09/24 06:13:50;;;;;;;4.73;3.80;;;7.80;95.50;;;6.72;100.00;98934.06;5043869;28;20467;-76
2023/09/24 06:16:17;;;;;;;4.80;4.30;;;7.80;95.70;;;6.82;100.00;98939.28;5044550;28;20845;-76
2023/09/24 06:18:45;;;;;;;4.23;3.83;;;7.90;95.70;;;7.05;99.92;98940.28;5044215;28;20942;-74
2023/09/24 06:21:16;;;;;;;6.33;5.13;;;8.00;95.60;;;7.21;100.00;98955.50;5044868;28;20519;-78
2023/09/24 06:23:43;;;;;;;4.70;4.27;;;8.00;95.80;;;7.20;100.00;98947.59;5044486;28;20454;-79
2023/09/24 06:26:11;;;;;;;4.97;4.50;;;8.10;95.80;;;7.26;99.53;98948.78;5041361;28;20552;-77
2023/09/24 06:28:40;;;;;;;4.50;4.03;;;8.20;95.10;;;7.37;100.00;98946.59;5043795;28;20459;-79
2023/09/24 06:31:07;;;;;;;5.80;5.27;;;8.30;95.20;;;7.24;99.57;98914.03;5045664;28;20461;-78
2023/09/24 06:33:35;;;;;;;4.87;4.40;;;8.40;94.90;;;7.43;98.83;98949.59;5046049;28;20462;-76
2023/09/24 06:36:04;;;;;;;8.50;4.73;;;8.40;93.80;;;7.56;98.59;98947.19;5045831;28;20582;-73
2023/09/24 06:38:33;;;;;;;4.60;4.20;;;8.50;93.90;;;7.48;97.81;98933.75;5039957;28;20538;-75
2023/09/24 06:41:02;;;;;;;5.10;4.60;;;8.50;93.20;;;7.58;97.99;98942.47;5046026;28;20562;-73
2023/09/24 06:43:29;;;;;;;4.93;4.40;;;8.60;93.60;;;7.71;97.54;98943.78;5044621;28;20508;-74
2023/09/24 06:45:59;;;;;;;10.70;4.80;;;8.70;93.60;;;8.26;99.12;98946.53;5050688;28;20911;-73
2023/09/24 06:48:27;;;;;;;6.70;4.30;;;8.90;95.30;;;8.46;97.50;98939.69;5048769;28;20470;-73
2023/09/24 06:50:55;;;;;;;4.43;3.90;;;9.10;94.50;;;8.63;95.75;98947.66;5047299;28;20489;-74
2023/09/24 06:53:23;;;;;;;4.27;3.87;;;9.30;93.60;;;8.60;94.85;98945.34;5044935;28;20449;-75
2023/09/24 06:55:50;;;;;;;4.23;3.83;;;9.40;92.10;;;8.45;92.34;98945.22;5042437;28;20455;-82
2023/09/24 06:58:18;;;;;;;4.97;3.80;;;9.40;91.10;;;8.36;93.52;98952.53;5036968;28;20468;-79
2023/09/24 07:00:45;;;;;;;5.10;3.87;;;9.30;91.30;;;8.41;93.58;98955.50;5045106;28;21213;-80
2023/09/24 07:03:14;;;;;;;4.87;3.97;;;9.30;91.40;;;8.54;92.56;98959.50;5045797;28;20470;-84
2023/09/24 07:05:41;;;;;;;5.07;4.53;;;9.40;91.20;;;8.89;92.75;98962.63;5044507;28;21127;-77
2023/09/24 07:08:08;;;;;;;6.03;3.80;;;9.60;92.10;;;8.89;90.37;98974.22;5043277;28;20905;-77
2023/09/24 07:10:35;;;;;;;4.80;4.30;;;9.70;91.10;;;8.73;90.17;98969.81;5036870;28;23258;-82
2023/09/24 07:13:03;;;;;;;4.37;3.93;;;9.70;90.40;;;8.73;90.67;98967.13;5048477;28;20538;-75
2023/09/24 07:15:31;;;;;;;6.00;4.20;;;9.70;90.40;;;8.73;90.63;98969.81;5047524;28;20552;-81
2023/09/24 07:17:58;;;;;;;4.73;4.27;;;9.60;90.40;;;9.01;90.99;98969.25;5043435;28;20460;-79
2023/09/24 07:20:28;;;;;;;4.60;3.97;;;9.70;90.80;;;9.15;88.63;98972.16;5050118;28;20946;-77
2023/09/24 07:22:56;;;;;;;4.60;4.20;;;9.90;90.10;;;9.03;89.87;98977.16;5039885;28;20465;-82
2023/09/24 07:25:24;;;;;;;6.00;4.03;;;9.90;90.00;;;9.00;89.41;98975.66;5050884;28;20447;-84
2023/09/24 07:27:51;;;;;;;6.20;5.10;;;9.90;89.80;;;8.98;89.31;98972.31;5044579;28;21446;-81
2023/09/24 07:30:18;;;;;;;5.00;4.57;;;9.90;89.80;;;9.37;90.90;98975.00;5045044;28;20617;-80
2023/09/24 07:32:47;;;;;;;4.90;3.73;;;10.00;90.00;;;9.66;86.92;98974.16;5047889;28;20521;-83
2023/09/24 07:35:14;;;;;;;4.43;4.03;;;10.30;89.10;;;9.79;86.29;98978.94;5047421;28;20483;-85
2023/09/24 07:37:43;;;;;;;8.90;4.20;;;10.40;88.30;;;9.88;85.34;98972.38;5047011;28;20552;-74
2023/09/24 07:40:11;;;;;;;5.30;4.47;;;10.60;87.60;;;10.01;85.59;98976.28;5047633;28;20527;-77
2023/09/24 07:42:39;;;;;;;4.10;3.70;;;10.70;87.30;;;10.01;84.46;98981.69;5049648;28;20448;-84
2023/09/24 07:45:08;;;;;;;3.73;3.43;;;10.80;87.00;;;10.29;83.47;98989.09;5051402;28;20460;-85
2023/09/24 07:47:35;;;;;;;5.67;3.20;;;10.90;86.50;;;10.28;84.40;98990.13;5051665;28;20428;-75
2023/09/24 07:50:02;;;;;;;3.70;3.40;;;11.00;86.50;;;10.64;82.66;98986.59;5051089;28;20451;-82
2023/09/24 07:52:31;;;;;;;5.03;3.73;;;11.20;86.30;;;10.60;82.25;98983.44;5047461;28;20452;-76
2023/09/24 07:55:02;;;;;;;4.47;3.90;;;11.20;85.90;;;10.93;81.12;98981.28;5048006;28;20463;-78
2023/09/24 07:57:29;;;;;;;5.30;3.60;;;11.30;86.30;;;11.10;80.29;98979.09;5049917;28;20968;-75
2023/09/24 07:59:57;;;;;;;4.67;3.70;;;11.40;85.50;;;11.28;79.73;98978.63;5047626;28;20472;-80
2023/09/24 08:02:25;;;;;;;3.83;3.50;;;11.60;85.50;;;11.56;80.59;98973.19;5050140;28;20455;-80
2023/09/24 08:04:52;;;;;;;4.50;4.10;;;11.80;86.50;;;11.71;77.22;98983.94;5063637;28;20557;-76
2023/09/24 08:07:19;;;;;;;7.37;4.00;;;12.00;84.70;;;11.94;78.35;98973.84;5062967;28;20445;-75
2023/09/24 08:09:47;;;;;;;3.80;3.33;;;12.20;85.30;;;11.93;77.24;98977.59;5044508;28;20488;-75
2023/09/24 08:12:16;;;;;;;4.57;3.80;;;12.30;84.30;;;11.92;76.94;98971.31;5045047;28;20475;-74
2023/09/24 08:14:47;;;;;;;4.63;4.23;;;12.30;84.40;;;12.03;76.31;98972.66;5046017;28;20814;-75
2023/09/24 08:17:15;;;;;;;4.47;3.90;;;12.40;83.80;;;12.36;76.91;98982.81;5056829;28;20452;-74
2023/09/24 08:19:42;;;;;;;4.63;4.20;;;12.60;84.50;;;12.59;75.58;98987.03;5039106;28;20469;-74
2023/09/24 08:22:09;;;;;;;4.93;4.00;;;12.80;84.20;;;12.41;75.21;98987.59;5043172;28;20459;-73
2023/09/24 08:24:45;;;;;;;4.13;3.67;;;12.90;83.20;;;12.63;75.33;98985.56;5041327;28;21077;-75
2023/09/24 08:27:12;;;;;;;4.70;3.50;;;13.00;83.30;;;12.55;73.90;98983.88;5044494;28;20475;-75
2023/09/24 08:29:40;;;;;;;7.17;4.50;;;13.10;82.50;;;12.19;75.10;98972.28;5040247;28;20487;-74
2023/09/24 08:32:08;;;;;;;5.60;3.93;;;12.90;82.50;;;12.53;74.54;98990.56;5047981;28;20483;-74
2023/09/24 08:34:35;;;;;;;3.57;3.27;;;12.90;82.50;;;12.51;73.90;98989.91;5048069;28;20463;-74
2023/09/24 08:37:03;;;;;;;4.37;3.97;;;13.00;82.00;;;12.65;73.46;98993.50;5047359;28;20448;-74
2023/09/24 08:39:30;;;;;;;5.10;3.70;;;13.00;82.00;;;12.97;74.06;98994.59;5043548;28;20511;-72
2023/09/24 08:41:59;;;;;;;3.93;3.53;;;13.20;82.50;;;13.11;72.16;98995.44;5044320;28;20529;-74
2023/09/24 08:44:28;;;;;;;6.53;4.37;;;13.50;81.70;;;13.23;71.43;98992.94;5043915;28;20448;-73
2023/09/24 08:46:57;;;;;;;6.10;4.33;;;13.60;81.40;;;13.34;71.06;98996.88;5040313;28;20459;-70
2023/09/24 08:49:26;;;;;;;5.13;3.30;;;13.70;81.00;;;13.30;71.00;99004.63;5043593;28;20468;-71
2023/09/24 08:51:55;;;;;;;4.03;2.80;;;13.70;80.70;;;13.31;70.30;99003.59;5047582;28;20557;-72
2023/09/24 08:54:22;;;;;;;4.57;3.07;;;13.70;80.20;;;13.33;70.96;99003.34;5041643;28;20541;-74
2023/09/24 08:56:50;;;;;;;3.93;3.27;;;13.80;80.60;;;13.43;71.32;98997.53;5051410;28;20455;-73
2023/09/24 08:59:17;;;;;;;6.67;3.73;;;13.80;80.60;;;13.59;70.47;99002.56;5048887;28;20468;-77
2023/09/24 09:01:54;;;;;;;4.70;4.30;;;14.00;80.60;;;13.70;70.70;99002.94;5056893;28;20477;-75
2023/09/24 09:04:23;;;;;;;4.03;3.47;;;14.00;80.70;;;13.74;70.34;99004.19;5054801;28;20447;-74
2023/09/24 09:06:55;;;;;;;4.50;4.10;;;14.10;80.60;;;13.56;71.74;99002.13;5048776;28;20473;-73
2023/09/24 09:09:27;;;;;;;6.27;3.73;;;14.10;80.90;;;13.44;72.55;99001.94;5043523;28;20457;-72
2023/09/24 09:11:54;;;;;;;4.27;3.87;;;14.00;81.10;;;13.65;72.63;99005.47;5040097;28;20442;-72
2023/09/24 09:14:37;;;;;;;4.37;3.97;;;14.00;81.50;;;13.87;71.51;99004.16;5046522;28;20505;-72
2023/09/24 09:17:04;;;;;;;6.80;4.10;;;14.20;81.50;;;13.79;71.93;98998.97;5059863;28;20457;-72
2023/09/24 09:19:49;;;;;;;4.20;3.80;;;14.20;81.20;;;13.93;70.66;99001.63;5045025;28;20461;-73
2023/09/24 09:22:18;;;;;;;4.50;4.10;;;14.30;80.90;;;14.14;70.09;99004.06;5043911;28;20480;-72
2023/09/24 09:24:47;;;;;;;3.93;3.43;;;14.40;80.60;;;14.05;70.20;99002.66;5046798;28;20464;-73
2023/09/24 09:27:14;;;;;;;5.07;3.73;;;14.50;80.50;;;14.12;70.11;98999.91;5047720;28;20534;-71
2023/09/24 09:29:42;;;;;;;4.00;3.60;;;14.50;80.30;;;14.20;69.80;98999.66;5045030;28;20455;-71
2023/09/24 09:32:09;;;;;;;5.17;3.30;;;14.50;80.40;;;14.07;70.75;98995.13;5044630;28;20453;-73
2023/09/24 09:34:40;;;;;;;8.00;3.40;;;14.50;80.70;;;14.38;70.55;98996.25;5044242;28;20457;-74
2023/09/24 09:37:17;;;;;;;3.80;2.93;;;14.60;81.50;;;14.69;70.62;98993.78;5062758;28;20486;-73
2023/09/24 09:39:46;;;;;;;3.90;3.40;;;14.80;81.30;;;14.83;68.38;98989.13;5043622;28;20468;-73
2023/09/24 09:42:21;;;;;;;4.23;3.20;;;15.00;80.40;;;14.99;69.02;98993.19;5043196;28;20460;-72
2023/09/24 09:44:52;;;;;;;3.33;3.03;;;15.20;80.40;;;14.91;67.55;98988.03;5045238;28;20487;-74
2023/09/24 09:47:21;;;;;;;3.77;2.93;;;15.20;79.60;;;14.97;67.85;98993.44;5045374;28;20445;-73
2023/09/24 09:49:59;;;;;;;3.40;3.10;;;15.30;79.70;;;14.94;67.91;98987.56;5044381;28;20887;-72
2023/09/24 09:52:35;;;;;;;4.80;3.80;;;15.30;79.50;;;15.10;67.54;98994.38;5027901;28;21186;-73
2023/09/24 09:55:05;;;;;;;3.30;3.00;;;15.40;79.60;;;15.20;66.89;98985.72;5045143;28;20464;-72
2023/09/24 09:57:34;;;;;;;4.17;3.10;;;15.40;79.30;;;15.29;66.36;98987.94;5045565;28;20459;-73
2023/09/24 10:00:05;;;;;;;4.53;3.10;;;15.50;78.70;;;15.37;66.07;98986.81;5042861;28;21134;-73
2023/09/24 10:02:34;;;;;;;3.83;3.40;;;15.70;78.60;;;15.00;66.95;98984.81;5055030;28;20563;-73
2023/09/24 10:05:03;;;;;;;3.67;2.80;;;15.60;78.50;;;15.24;65.42;98985.06;5042550;28;20605;-73
2023/09/24 10:07:30;;;;;;;5.73;2.77;;;15.60;78.00;;;15.30;65.83;98984.16;5044522;28;20514;-72
2023/09/24 10:09:58;;;;;;;3.00;2.70;;;15.80;78.20;;;15.29;65.57;98938.09;5045665;28;20479;-72
2023/09/24 10:12:38;;;;;;;7.60;2.77;;;15.90;78.00;;;15.76;64.79;98989.38;5042762;28;20454;-72
2023/09/24 10:15:25;;;;;;;4.37;2.50;;;16.10;77.70;;;15.76;64.04;98992.09;5042304;28;20484;-74
2023/09/24 10:18:25;;;;;;;4.17;2.70;;;16.20;76.70;;;16.05;63.00;98978.81;5047037;28;20469;-74
2023/09/24 10:21:06;;;;;;;6.70;2.90;;;16.40;76.80;;;16.00;62.37;98986.88;5043799;28;20469;-73
2023/09/24 10:23:35;;;;;;;6.77;2.53;;;16.40;75.70;;;15.93;62.39;98986.94;5036473;28;20450;-72
2023/09/24 10:26:05;;;;;;;2.50;2.00;;;16.40;75.20;;;15.99;61.80;98982.44;5045752;28;20818;-74
2023/09/24 10:28:48;;;;;;;4.33;2.43;;;16.40;75.00;;;16.29;61.65;98973.47;5036221;28;20458;-72
2023/09/24 10:31:16;;;;;;;4.53;2.30;;;16.60;75.10;;;16.22;60.22;98979.00;5042099;28;20455;-72
2023/09/24 10:34:02;;;;;;;2.50;2.30;;;16.70;73.80;;;16.07;61.53;98973.97;5043069;28;20457;-73